Time;durP1;ratioP1;P1;durP2;ratioP2;P2;SDS_P1;SDS_P2;PMS_P1;PMS_P2;Temp;Humidity;BMP_temperature;BMP_pressure;BME280_temperature;BME280_humidity;BME280_pressure;Samples;Min_cycle;Max_cycle;Signal;HPM_P1;HPM_P2
2022/02/27 00:00:15;;;;;;;31.17;14.27;;;3.50;99.90;;;;;;4440191;32;20214;-70
2022/02/27 00:02:42;;;;;;;32.00;15.17;;;3.40;99.90;;;;;;4440067;32;20238;-70
2022/02/27 00:05:10;;;;;;;35.13;14.97;;;3.50;99.90;;;;;;4441893;32;20504;-69
2022/02/27 00:07:37;;;;;;;34.83;15.13;;;3.40;99.90;;;;;;4441397;32;20223;-70
2022/02/27 00:10:05;;;;;;;31.67;14.63;;;3.40;99.90;;;;;;4441036;32;20183;-70
2022/02/27 00:12:32;;;;;;;30.27;13.70;;;3.40;99.90;;;;;;4439934;32;20254;-71
2022/02/27 00:14:59;;;;;;;32.73;15.63;;;3.40;99.90;;;;;;4441599;32;20187;-69
2022/02/27 00:17:26;;;;;;;31.23;13.83;;;3.50;99.90;;;;;;4440061;32;20198;-69
2022/02/27 00:19:52;;;;;;;29.43;13.57;;;3.40;99.90;;;;;;4446219;32;20573;-69
2022/02/27 00:22:20;;;;;;;29.53;14.17;;;3.40;99.90;;;;;;4449956;32;20173;-69
2022/02/27 00:24:46;;;;;;;30.50;14.07;;;3.40;99.90;;;;;;4441302;32;20204;-69
2022/02/27 00:27:14;;;;;;;31.23;14.00;;;3.30;99.90;;;;;;4439700;32;20179;-70
2022/02/27 00:29:41;;;;;;;32.07;14.70;;;3.30;99.90;;;;;;4441126;32;20255;-70
2022/02/27 00:32:08;;;;;;;31.20;13.80;;;3.30;99.90;;;;;;4441088;32;20214;-70
2022/02/27 00:34:35;;;;;;;29.60;13.20;;;3.20;99.90;;;;;;4441261;32;20183;-70
2022/02/27 00:37:02;;;;;;;27.20;13.30;;;3.20;99.90;;;;;;4446706;32;20218;-70
2022/02/27 00:39:29;;;;;;;28.73;12.23;;;3.20;99.90;;;;;;4454706;32;20236;-70
2022/02/27 00:41:56;;;;;;;25.03;12.00;;;3.20;99.90;;;;;;4457164;32;20185;-69
2022/02/27 00:44:23;;;;;;;23.43;11.10;;;3.20;99.90;;;;;;4456858;32;20193;-70
2022/02/27 00:46:50;;;;;;;23.73;12.23;;;3.20;99.90;;;;;;4456815;32;20242;-70
2022/02/27 00:49:16;;;;;;;23.10;11.23;;;3.30;99.90;;;;;;4456514;32;20193;-71
2022/02/27 00:51:44;;;;;;;26.40;11.70;;;3.30;99.90;;;;;;4456930;32;20183;-70
2022/02/27 00:54:11;;;;;;;24.73;11.87;;;3.30;99.90;;;;;;4440732;32;20441;-70
2022/02/27 00:56:38;;;;;;;23.00;10.67;;;3.30;99.90;;;;;;4441169;32;20158;-70
2022/02/27 00:59:05;;;;;;;26.57;11.43;;;3.30;99.90;;;;;;4441218;32;20245;-70
2022/02/27 01:01:32;;;;;;;26.53;10.93;;;3.20;99.90;;;;;;4441345;32;20174;-69
2022/02/27 01:03:59;;;;;;;22.53;10.53;;;3.20;99.90;;;;;;4440892;32;20185;-70
2022/02/27 01:06:26;;;;;;;21.50;10.33;;;3.30;99.90;;;;;;4444406;32;20281;-71
2022/02/27 01:08:54;;;;;;;23.10;10.63;;;3.30;99.90;;;;;;4453733;32;20209;-68
2022/02/27 01:11:21;;;;;;;23.03;10.07;;;3.30;99.90;;;;;;4440954;32;20474;-69
2022/02/27 01:13:48;;;;;;;21.90;10.03;;;3.30;99.90;;;;;;4439854;32;20289;-70
2022/02/27 01:16:15;;;;;;;24.63;10.27;;;3.20;99.90;;;;;;4439465;32;20185;-69
2022/02/27 01:18:41;;;;;;;22.07;9.97;;;3.20;99.90;;;;;;4440086;32;20175;-70
2022/02/27 01:21:08;;;;;;;22.30;9.80;;;3.10;99.90;;;;;;4438970;32;20447;-70
2022/02/27 01:23:35;;;;;;;21.47;9.50;;;3.10;99.90;;;;;;4440612;32;20163;-70
2022/02/27 01:26:02;;;;;;;21.60;9.30;;;3.20;99.90;;;;;;4440729;32;20241;-69
2022/02/27 01:28:31;;;;;;;20.70;9.33;;;3.10;99.90;;;;;;4442222;32;20135;-69
2022/02/27 01:30:58;;;;;;;16.60;9.40;;;3.10;99.90;;;;;;4442088;32;20450;-70
2022/02/27 01:33:25;;;;;;;22.03;9.20;;;3.10;99.90;;;;;;4438972;32;20524;-69
2022/02/27 01:35:52;;;;;;;18.50;9.10;;;3.10;99.90;;;;;;4440313;32;20197;-71
2022/02/27 01:38:18;;;;;;;19.97;9.20;;;3.10;99.90;;;;;;4440418;32;20245;-70
2022/02/27 01:40:45;;;;;;;17.43;8.40;;;3.10;99.90;;;;;;4441980;32;20150;-70
2022/02/27 01:43:12;;;;;;;17.80;9.00;;;3.10;99.90;;;;;;4440264;32;20512;-69
2022/02/27 01:45:39;;;;;;;20.50;8.77;;;3.20;99.90;;;;;;4439443;32;20186;-69
2022/02/27 01:48:06;;;;;;;18.73;8.13;;;3.10;99.90;;;;;;4438668;32;20208;-69
2022/02/27 01:50:33;;;;;;;19.33;8.53;;;3.00;99.90;;;;;;4438636;32;20249;-70
2022/02/27 01:52:59;;;;;;;20.30;8.97;;;3.00;99.90;;;;;;4438775;32;20451;-70
2022/02/27 01:55:26;;;;;;;22.03;8.97;;;3.00;99.90;;;;;;4438685;32;20178;-70
2022/02/27 01:57:54;;;;;;;18.83;8.60;;;3.00;99.90;;;;;;4438628;32;20492;-71
2022/02/27 02:00:20;;;;;;;20.77;8.50;;;3.00;99.90;;;;;;4439474;32;20229;-70
2022/02/27 02:02:47;;;;;;;18.60;8.30;;;3.00;99.90;;;;;;4440172;32;20453;-70
2022/02/27 02:05:15;;;;;;;17.87;8.30;;;3.00;99.90;;;;;;4440909;32;20135;-70
2022/02/27 02:07:43;;;;;;;19.90;8.07;;;2.90;99.90;;;;;;4439718;32;20242;-71
2022/02/27 02:10:10;;;;;;;15.73;8.30;;;2.90;99.90;;;;;;4438338;32;20194;-70
2022/02/27 02:12:37;;;;;;;17.83;7.87;;;2.80;99.90;;;;;;4438643;32;20203;-69
2022/02/27 02:15:05;;;;;;;21.60;8.77;;;2.90;99.90;;;;;;4438323;32;20238;-69
2022/02/27 02:17:32;;;;;;;19.43;8.50;;;2.90;99.90;;;;;;4439401;32;20201;-70
2022/02/27 02:19:58;;;;;;;18.10;8.43;;;2.90;99.90;;;;;;4438122;32;20252;-70
2022/02/27 02:22:25;;;;;;;15.50;7.97;;;2.80;99.90;;;;;;4440257;32;20165;-71
2022/02/27 02:24:52;;;;;;;17.57;8.60;;;2.80;99.90;;;;;;4439220;32;20157;-69
2022/02/27 02:27:19;;;;;;;17.67;8.27;;;2.80;99.90;;;;;;4426745;32;20217;-70
2022/02/27 02:29:46;;;;;;;18.23;8.23;;;2.80;99.90;;;;;;4437841;32;20190;-70
2022/02/27 02:32:13;;;;;;;15.60;7.97;;;2.80;99.90;;;;;;4439668;32;20142;-69
2022/02/27 02:34:40;;;;;;;18.07;8.00;;;2.80;99.90;;;;;;4446612;32;20177;-69
2022/02/27 02:37:11;;;;;;;18.43;8.03;;;2.80;99.90;;;;;;4441580;32;20226;-69
2022/02/27 02:39:37;;;;;;;17.87;8.63;;;2.70;99.90;;;;;;4454950;32;20276;-69
2022/02/27 02:42:04;;;;;;;17.13;8.20;;;2.70;99.90;;;;;;4441035;32;20256;-69
2022/02/27 02:44:31;;;;;;;17.73;7.97;;;2.70;99.90;;;;;;4453422;32;20233;-69
2022/02/27 02:46:58;;;;;;;16.80;7.70;;;2.60;99.90;;;;;;4455202;32;20251;-69
2022/02/27 02:49:25;;;;;;;16.87;8.13;;;2.60;99.90;;;;;;4455490;32;20190;-69
2022/02/27 02:51:53;;;;;;;14.37;7.53;;;2.50;99.90;;;;;;4454822;32;20210;-69
2022/02/27 02:54:19;;;;;;;17.17;7.43;;;2.50;99.90;;;;;;4454929;32;20567;-69
2022/02/27 02:56:46;;;;;;;16.53;8.23;;;2.50;99.90;;;;;;4448215;32;20233;-69
2022/02/27 02:59:13;;;;;;;16.63;7.90;;;2.50;99.90;;;;;;4441407;32;20265;-70
2022/02/27 03:01:40;;;;;;;19.27;7.83;;;2.50;99.90;;;;;;4448332;32;20174;-69
2022/02/27 03:04:08;;;;;;;16.10;7.70;;;2.50;99.90;;;;;;4439961;32;20159;-69
2022/02/27 03:06:34;;;;;;;15.90;7.63;;;2.50;99.90;;;;;;4440641;32;20181;-71
2022/02/27 03:09:03;;;;;;;16.47;7.43;;;2.40;99.90;;;;;;4439795;32;20187;-69
2022/02/27 03:11:30;;;;;;;16.07;7.13;;;2.40;99.90;;;;;;4438558;32;20249;-69
2022/02/27 03:14:01;;;;;;;19.90;7.13;;;2.40;99.90;;;;;;4436868;32;20230;-69
2022/02/27 03:16:30;;;;;;;18.63;7.67;;;2.40;99.90;;;;;;4437726;32;20544;-69
2022/02/27 03:18:57;;;;;;;16.00;7.80;;;2.40;99.90;;;;;;4438088;32;20255;-69
2022/02/27 03:21:25;;;;;;;17.13;8.03;;;2.40;99.90;;;;;;4440468;32;20443;-69
2022/02/27 03:23:52;;;;;;;14.00;7.20;;;2.40;99.90;;;;;;4440139;32;20143;-68
2022/02/27 03:26:22;;;;;;;16.43;8.03;;;2.40;99.90;;;;;;4439403;32;20241;-70
2022/02/27 03:28:50;;;;;;;15.53;7.53;;;2.30;99.90;;;;;;4439233;32;20201;-69
2022/02/27 03:31:18;;;;;;;18.07;8.37;;;2.30;99.90;;;;;;4439291;32;20205;-69
2022/02/27 03:33:45;;;;;;;16.53;8.47;;;2.30;99.90;;;;;;4437802;32;20193;-68
2022/02/27 03:36:12;;;;;;;18.77;8.50;;;2.20;99.90;;;;;;4437474;32;20602;-68
2022/02/27 03:38:39;;;;;;;18.07;8.57;;;2.20;99.90;;;;;;4439097;32;20461;-69
2022/02/27 03:41:06;;;;;;;19.37;8.70;;;2.20;99.90;;;;;;4437206;32;20198;-69
2022/02/27 03:43:33;;;;;;;18.03;8.47;;;2.20;99.90;;;;;;4438455;32;20551;-69
2022/02/27 03:46:00;;;;;;;20.30;8.70;;;2.20;99.90;;;;;;4439521;32;20170;-69
2022/02/27 03:48:28;;;;;;;19.03;8.13;;;2.20;99.90;;;;;;4437787;32;20179;-69
2022/02/27 03:50:55;;;;;;;17.20;8.57;;;2.10;99.90;;;;;;4438396;32;20621;-70
2022/02/27 03:53:22;;;;;;;18.87;8.77;;;2.00;99.90;;;;;;4437877;32;20225;-69
2022/02/27 03:55:49;;;;;;;18.83;8.87;;;1.90;99.90;;;;;;4439163;32;20174;-69
2022/02/27 03:58:17;;;;;;;18.37;8.40;;;2.00;99.90;;;;;;4437695;32;20170;-69
2022/02/27 04:00:45;;;;;;;15.80;8.03;;;2.00;99.90;;;;;;4439388;32;20450;-70
2022/02/27 04:03:12;;;;;;;15.37;8.43;;;2.00;99.90;;;;;;4424921;32;20170;-70
2022/02/27 04:05:40;;;;;;;19.67;8.83;;;2.10;99.90;;;;;;4437548;32;20232;-69
2022/02/27 04:08:07;;;;;;;18.20;8.40;;;2.10;99.90;;;;;;4440623;32;20199;-69
2022/02/27 04:10:35;;;;;;;21.47;9.17;;;2.00;99.90;;;;;;4440855;32;20439;-70
2022/02/27 04:13:02;;;;;;;18.77;8.97;;;2.10;99.90;;;;;;4440775;32;20186;-69
2022/02/27 04:15:29;;;;;;;18.10;8.67;;;2.10;99.90;;;;;;4441429;32;20222;-69
2022/02/27 04:17:55;;;;;;;17.63;8.87;;;2.10;99.90;;;;;;4441896;32;20154;-69
2022/02/27 04:20:23;;;;;;;18.90;9.00;;;2.10;99.90;;;;;;4440336;32;20170;-68
2022/02/27 04:22:50;;;;;;;18.77;8.43;;;2.20;99.90;;;;;;4441710;32;20146;-70
2022/02/27 04:25:17;;;;;;;20.43;9.67;;;2.20;99.90;;;;;;4441375;32;20265;-69
2022/02/27 04:27:44;;;;;;;21.70;10.23;;;2.10;99.90;;;;;;4439844;32;20246;-69
2022/02/27 04:30:11;;;;;;;25.50;10.83;;;2.00;99.90;;;;;;4441383;32;20201;-69
2022/02/27 04:32:38;;;;;;;28.27;11.40;;;2.00;99.90;;;;;;4439489;32;20249;-70
2022/02/27 04:35:05;;;;;;;26.77;11.87;;;2.00;99.90;;;;;;4441692;32;20612;-70
2022/02/27 04:37:32;;;;;;;23.60;10.47;;;2.00;99.90;;;;;;4441195;32;20191;-68
2022/02/27 04:39:59;;;;;;;22.87;10.90;;;2.00;99.90;;;;;;4440783;32;20272;-68
2022/02/27 04:42:26;;;;;;;22.10;11.17;;;2.00;99.90;;;;;;4439640;32;20202;-70
2022/02/27 04:44:53;;;;;;;22.63;10.43;;;2.00;99.90;;;;;;4440666;32;20201;-69
2022/02/27 04:47:20;;;;;;;23.40;10.70;;;2.00;99.90;;;;;;4439968;32;20189;-69
2022/02/27 04:49:48;;;;;;;29.20;12.27;;;2.00;99.90;;;;;;4440547;32;20225;-69
2022/02/27 04:52:16;;;;;;;26.67;12.17;;;1.90;99.90;;;;;;4440571;32;20347;-69
2022/02/27 04:54:44;;;;;;;23.30;11.27;;;1.80;99.90;;;;;;4441524;32;20241;-69
2022/02/27 04:57:11;;;;;;;27.57;12.33;;;1.80;99.90;;;;;;4440336;32;20178;-69
2022/02/27 04:59:38;;;;;;;24.60;11.60;;;1.70;99.90;;;;;;4442119;32;20447;-70
2022/02/27 05:02:05;;;;;;;24.33;11.30;;;1.70;99.90;;;;;;4439377;32;20241;-69
2022/02/27 05:04:34;;;;;;;28.77;11.93;;;1.60;99.90;;;;;;4441332;32;20220;-69
2022/02/27 05:07:02;;;;;;;31.63;12.50;;;1.50;99.90;;;;;;4439624;32;20193;-69
2022/02/27 05:09:30;;;;;;;26.43;11.77;;;1.50;99.90;;;;;;4442034;32;20204;-69
2022/02/27 05:11:57;;;;;;;25.33;11.37;;;1.30;99.90;;;;;;4440387;32;20179;-68
2022/02/27 05:14:24;;;;;;;32.30;12.80;;;1.40;99.90;;;;;;4440548;32;20260;-69
2022/02/27 05:16:52;;;;;;;30.43;11.97;;;1.40;99.90;;;;;;4439694;32;20174;-69
2022/02/27 05:19:19;;;;;;;28.57;12.67;;;1.30;99.90;;;;;;4439838;32;20170;-69
2022/02/27 05:21:46;;;;;;;28.80;12.30;;;1.30;99.90;;;;;;4440892;32;20178;-69
2022/02/27 05:24:13;;;;;;;31.13;12.60;;;1.40;99.90;;;;;;4439174;32;20205;-68
2022/02/27 05:26:42;;;;;;;30.33;11.87;;;1.50;99.90;;;;;;4439343;32;20209;-68
2022/02/27 05:29:09;;;;;;;29.53;11.83;;;1.50;99.90;;;;;;4440859;32;20225;-69
2022/02/27 05:31:36;;;;;;;26.47;12.00;;;1.50;99.90;;;;;;4438908;32;20540;-69
2022/02/27 05:34:03;;;;;;;27.67;11.60;;;1.60;99.90;;;;;;4439057;32;20212;-68
2022/02/27 05:36:29;;;;;;;25.60;10.90;;;1.60;99.90;;;;;;4440897;32;20226;-69
2022/02/27 05:38:56;;;;;;;24.63;10.87;;;1.60;99.90;;;;;;4441176;32;20185;-69
2022/02/27 05:41:23;;;;;;;27.77;11.83;;;1.70;99.90;;;;;;4440327;32;20439;-69
2022/02/27 05:43:54;;;;;;;28.13;11.43;;;1.70;99.90;;;;;;4440834;32;20171;-69
2022/02/27 05:46:21;;;;;;;26.70;11.50;;;1.70;99.90;;;;;;4440132;32;20548;-69
2022/02/27 05:48:48;;;;;;;27.63;11.50;;;1.80;99.90;;;;;;4440399;32;20237;-70
2022/02/27 05:51:15;;;;;;;25.83;10.57;;;1.70;99.90;;;;;;4441919;32;20166;-69
2022/02/27 05:53:42;;;;;;;27.53;11.73;;;1.70;99.90;;;;;;4438843;32;20190;-69
2022/02/27 05:56:09;;;;;;;26.00;11.87;;;1.70;99.90;;;;;;4438751;32;20241;-70
2022/02/27 05:58:36;;;;;;;28.43;12.07;;;1.70;99.90;;;;;;4439761;32;20150;-69
2022/02/27 06:01:03;;;;;;;26.47;10.80;;;1.70;99.90;;;;;;4440311;32;20245;-70
2022/02/27 06:03:30;;;;;;;25.97;11.10;;;1.70;99.90;;;;;;4438483;32;20182;-69
2022/02/27 06:05:57;;;;;;;25.43;11.07;;;1.70;99.90;;;;;;4440199;32;20178;-69
2022/02/27 06:08:24;;;;;;;27.87;12.07;;;1.70;99.90;;;;;;4441488;32;20202;-70
2022/02/27 06:10:51;;;;;;;24.07;10.00;;;1.70;99.90;;;;;;4438569;32;20241;-69
2022/02/27 06:13:17;;;;;;;27.67;11.07;;;1.70;99.90;;;;;;4439848;32;20245;-69
2022/02/27 06:15:44;;;;;;;23.63;10.33;;;1.60;99.90;;;;;;4440042;32;20234;-70
2022/02/27 06:18:11;;;;;;;27.80;11.20;;;1.60;99.90;;;;;;4439930;32;20205;-69
2022/02/27 06:20:38;;;;;;;27.77;11.13;;;1.70;99.90;;;;;;4439982;32;20536;-70
2022/02/27 06:23:06;;;;;;;24.80;11.20;;;1.70;99.90;;;;;;4440280;32;20243;-70
2022/02/27 06:25:33;;;;;;;21.70;10.40;;;1.60;99.90;;;;;;4440963;32;20147;-70
2022/02/27 06:28:00;;;;;;;22.53;9.97;;;1.60;99.90;;;;;;4440521;32;20480;-70
2022/02/27 06:30:27;;;;;;;24.60;10.37;;;1.60;99.90;;;;;;4441176;32;20464;-69
2022/02/27 06:32:54;;;;;;;24.23;11.13;;;1.70;99.90;;;;;;4439207;32;20500;-69
2022/02/27 06:35:23;;;;;;;24.53;10.60;;;1.60;99.90;;;;;;4440378;32;20202;-70
2022/02/27 06:37:55;;;;;;;23.27;10.67;;;1.60;99.90;;;;;;4440327;32;20225;-70
2022/02/27 06:40:22;;;;;;;26.43;10.93;;;1.70;99.90;;;;;;4439949;32;20251;-69
2022/02/27 06:42:49;;;;;;;28.17;11.57;;;1.70;99.90;;;;;;4439670;32;20226;-70
2022/02/27 06:45:17;;;;;;;27.27;11.30;;;1.70;99.90;;;;;;4439897;32;20486;-69
2022/02/27 06:47:44;;;;;;;26.87;11.83;;;1.60;99.90;;;;;;4439641;32;20212;-70
2022/02/27 06:50:12;;;;;;;28.73;11.73;;;1.70;99.90;;;;;;4440034;32;20190;-69
2022/02/27 06:52:40;;;;;;;23.40;10.67;;;1.80;99.90;;;;;;4439739;32;20528;-70
2022/02/27 06:55:09;;;;;;;25.17;10.53;;;1.90;99.90;;;;;;4438281;32;20229;-70
2022/02/27 06:57:36;;;;;;;25.90;10.83;;;2.00;99.90;;;;;;4438379;32;20258;-69
2022/02/27 07:00:06;;;;;;;27.70;11.73;;;2.00;99.90;;;;;;4438436;32;20201;-70
2022/02/27 07:02:33;;;;;;;24.77;10.77;;;1.90;99.90;;;;;;4441143;32;20135;-70
2022/02/27 07:05:00;;;;;;;29.30;11.93;;;1.90;99.90;;;;;;4437902;32;20202;-69
2022/02/27 07:07:27;;;;;;;27.00;11.67;;;1.90;99.90;;;;;;4439072;32;20296;-69
2022/02/27 07:10:00;;;;;;;24.63;11.37;;;2.10;99.90;;;;;;4439820;32;20202;-70
2022/02/27 07:12:28;;;;;;;29.40;12.63;;;2.10;99.90;;;;;;4439457;32;20195;-69
2022/02/27 07:14:55;;;;;;;30.40;12.30;;;2.20;99.90;;;;;;4440417;32;20158;-70
2022/02/27 07:17:22;;;;;;;26.60;12.20;;;2.30;99.90;;;;;;4437275;32;20186;-69
2022/02/27 07:19:49;;;;;;;27.50;12.23;;;2.30;99.90;;;;;;4437277;32;20190;-71
2022/02/27 07:22:17;;;;;;;33.97;13.07;;;2.20;99.90;;;;;;4437236;32;20170;-70
2022/02/27 07:24:44;;;;;;;27.10;12.00;;;2.20;99.90;;;;;;4437902;32;20187;-70
2022/02/27 07:27:12;;;;;;;27.73;11.77;;;2.10;99.90;;;;;;4437117;32;20188;-70
2022/02/27 07:29:40;;;;;;;27.50;10.73;;;2.20;99.90;;;;;;4438462;32;20509;-69
2022/02/27 07:32:11;;;;;;;23.60;10.23;;;2.20;99.90;;;;;;4437453;32;20201;-69
2022/02/27 07:34:38;;;;;;;27.07;10.60;;;2.20;99.90;;;;;;4437409;32;20205;-69
2022/02/27 07:37:05;;;;;;;26.40;11.07;;;2.20;99.90;;;;;;4437723;32;20178;-69
2022/02/27 07:39:32;;;;;;;26.13;10.87;;;2.10;99.90;;;;;;4438313;32;20205;-70
2022/02/27 07:41:59;;;;;;;28.00;11.17;;;2.20;99.90;;;;;;4432811;32;20406;-71
2022/02/27 07:44:27;;;;;;;24.60;10.83;;;2.10;99.90;;;;;;4424441;32;20272;-70
2022/02/27 07:46:55;;;;;;;26.10;11.37;;;2.00;99.90;;;;;;4427963;32;20263;-70
2022/02/27 07:49:24;;;;;;;27.67;12.33;;;2.00;99.90;;;;;;4427623;32;20224;-70
2022/02/27 07:51:53;;;;;;;29.17;11.97;;;2.10;99.90;;;;;;4443811;32;20165;-70
2022/02/27 07:54:20;;;;;;;30.60;11.93;;;2.20;99.90;;;;;;4428463;32;20264;-70
2022/02/27 07:56:47;;;;;;;26.37;11.53;;;2.10;99.90;;;;;;4428544;32;20232;-69
2022/02/27 07:59:14;;;;;;;28.10;11.93;;;2.10;99.90;;;;;;4429466;32;20171;-70
2022/02/27 08:01:42;;;;;;;25.23;10.90;;;2.20;99.90;;;;;;4443601;32;20158;-69
2022/02/27 08:04:10;;;;;;;28.73;12.03;;;2.30;99.90;;;;;;4428318;32;20246;-71
2022/02/27 08:06:37;;;;;;;24.63;11.90;;;2.40;99.90;;;;;;4429404;32;20451;-70
2022/02/27 08:09:05;;;;;;;23.87;11.83;;;2.40;99.90;;;;;;4429174;32;20572;-71
2022/02/27 08:11:32;;;;;;;26.40;12.03;;;2.50;99.90;;;;;;4427468;32;20233;-69
2022/02/27 08:13:59;;;;;;;24.07;11.40;;;2.50;99.90;;;;;;4442963;32;20373;-70
2022/02/27 08:16:26;;;;;;;27.67;11.87;;;2.50;99.90;;;;;;4442812;32;20174;-70
2022/02/27 08:18:54;;;;;;;28.07;11.97;;;2.60;99.90;;;;;;4441601;32;20419;-71
2022/02/27 08:21:20;;;;;;;25.60;11.87;;;2.60;99.90;;;;;;4427515;32;20566;-70
2022/02/27 08:23:47;;;;;;;32.03;13.27;;;2.60;99.90;;;;;;4428700;32;20237;-70
2022/02/27 08:26:15;;;;;;;31.33;12.97;;;2.50;99.90;;;;;;4429166;32;20164;-69
2022/02/27 08:28:41;;;;;;;28.67;11.73;;;2.50;99.90;;;;;;4428991;32;20186;-70
2022/02/27 08:31:08;;;;;;;26.83;11.80;;;2.50;99.90;;;;;;4427895;32;20171;-69
2022/02/27 08:33:36;;;;;;;28.27;11.97;;;2.40;99.90;;;;;;4414974;32;20166;-69
2022/02/27 08:36:03;;;;;;;28.20;11.60;;;2.60;99.90;;;;;;4428531;32;20217;-69
2022/02/27 08:38:30;;;;;;;26.17;12.07;;;2.80;99.90;;;;;;4427007;32;20234;-70
2022/02/27 08:40:57;;;;;;;27.87;12.03;;;2.90;99.90;;;;;;4441169;32;20181;-69
2022/02/27 08:43:24;;;;;;;28.83;13.20;;;3.00;99.90;;;;;;4440760;32;20434;-70
2022/02/27 08:45:52;;;;;;;30.20;13.37;;;3.00;99.90;;;;;;4427871;32;20581;-70
2022/02/27 08:48:18;;;;;;;26.67;12.13;;;3.00;99.90;;;;;;4428263;32;20216;-71
2022/02/27 08:50:45;;;;;;;22.13;11.10;;;3.00;99.90;;;;;;4442953;32;20169;-70
2022/02/27 08:53:12;;;;;;;25.77;11.43;;;3.00;99.90;;;;;;4427225;32;20178;-69
2022/02/27 08:55:41;;;;;;;24.33;11.50;;;3.00;99.90;;;;;;4427035;32;20239;-69
2022/02/27 08:58:08;;;;;;;28.97;13.13;;;3.10;99.90;;;;;;4426951;32;20185;-71
2022/02/27 09:00:35;;;;;;;28.40;12.87;;;3.20;99.90;;;;;;4436652;32;20194;-70
2022/02/27 09:03:02;;;;;;;25.20;11.73;;;3.30;99.90;;;;;;4427635;32;20174;-71
2022/02/27 09:05:29;;;;;;;25.60;12.07;;;3.30;99.90;;;;;;4427914;32;20194;-71
2022/02/27 09:07:56;;;;;;;29.40;14.10;;;3.40;99.90;;;;;;4428293;32;20179;-72
2022/02/27 09:10:23;;;;;;;27.37;13.03;;;3.50;99.90;;;;;;4440925;32;20482;-70
2022/02/27 09:12:50;;;;;;;27.57;12.70;;;3.50;99.90;;;;;;4426034;32;20215;-72
2022/02/27 09:15:17;;;;;;;23.23;11.10;;;3.60;99.90;;;;;;4427993;32;20258;-71
2022/02/27 09:17:43;;;;;;;27.30;12.27;;;3.60;99.90;;;;;;4428020;32;20224;-70
2022/02/27 09:20:10;;;;;;;20.47;10.23;;;3.60;99.90;;;;;;4427396;32;20595;-70
2022/02/27 09:22:38;;;;;;;22.20;11.00;;;3.70;99.90;;;;;;4440761;32;20165;-72
2022/02/27 09:25:05;;;;;;;26.77;12.80;;;3.70;99.90;;;;;;4427764;32;20246;-73
2022/02/27 09:27:52;;;;;;;24.60;11.50;;;3.80;99.90;;;;;;4436526;32;20495;-70
2022/02/27 09:30:19;;;;;;;21.43;11.43;;;3.80;99.90;;;;;;4430259;32;20224;-71
2022/02/27 09:32:46;;;;;;;24.70;12.60;;;3.80;99.90;;;;;;4434562;32;20168;-72
2022/02/27 09:35:13;;;;;;;21.83;11.33;;;3.60;99.90;;;;;;4427680;32;20189;-71
2022/02/27 09:37:39;;;;;;;22.90;11.23;;;3.50;99.90;;;;;;4426693;32;20242;-67
2022/02/27 09:40:07;;;;;;;21.97;10.73;;;3.50;99.90;;;;;;4426456;32;20171;-69
2022/02/27 09:42:34;;;;;;;21.80;10.87;;;3.50;99.90;;;;;;4440824;32;20217;-68
2022/02/27 09:45:02;;;;;;;22.37;11.07;;;3.50;99.90;;;;;;4414689;32;20496;-70
2022/02/27 09:47:29;;;;;;;23.00;11.33;;;3.60;99.90;;;;;;4427569;32;20188;-68
2022/02/27 09:49:56;;;;;;;22.50;10.47;;;3.60;99.90;;;;;;4425802;32;20171;-69
2022/02/27 09:52:23;;;;;;;20.33;10.87;;;3.60;99.90;;;;;;4426028;32;20587;-69
2022/02/27 09:54:50;;;;;;;21.20;10.67;;;3.50;99.90;;;;;;4426946;32;20177;-68
2022/02/27 09:57:20;;;;;;;20.40;11.10;;;3.50;99.90;;;;;;4426991;32;20251;-68
2022/02/27 09:59:47;;;;;;;19.90;10.60;;;3.60;99.90;;;;;;4426606;32;20198;-69
2022/02/27 10:02:15;;;;;;;21.53;10.40;;;3.60;99.90;;;;;;4427924;32;20529;-67
2022/02/27 10:04:45;;;;;;;22.50;10.87;;;3.60;99.90;;;;;;4426970;32;20545;-69
2022/02/27 10:07:14;;;;;;;22.50;10.40;;;3.60;99.90;;;;;;4426290;32;20190;-67
2022/02/27 10:09:42;;;;;;;22.20;11.30;;;3.70;99.90;;;;;;4426342;32;20218;-67
2022/02/27 10:12:11;;;;;;;20.80;11.13;;;3.80;99.90;;;;;;4426058;32;20183;-67
2022/02/27 10:14:39;;;;;;;23.40;10.27;;;3.80;99.90;;;;;;4425804;32;20481;-68
2022/02/27 10:17:07;;;;;;;18.43;10.07;;;3.80;99.90;;;;;;4440849;32;20167;-67
2022/02/27 10:19:38;;;;;;;17.07;9.40;;;3.70;99.90;;;;;;4425140;32;20175;-67
2022/02/27 10:22:08;;;;;;;19.07;9.87;;;3.60;99.90;;;;;;4440944;32;20143;-68
2022/02/27 10:24:36;;;;;;;19.80;9.30;;;3.70;99.90;;;;;;4425428;32;20192;-69
2022/02/27 10:27:13;;;;;;;16.40;8.60;;;3.90;99.90;;;;;;4428729;32;20201;-67
2022/02/27 10:29:40;;;;;;;17.50;9.77;;;4.10;99.90;;;;;;4438963;32;20215;-67
2022/02/27 10:32:07;;;;;;;21.77;11.77;;;4.20;99.90;;;;;;4439317;32;20356;-67
2022/02/27 10:34:36;;;;;;;19.83;10.70;;;4.30;99.90;;;;;;4468502;32;20148;-67
2022/02/27 10:37:08;;;;;;;19.33;10.63;;;4.30;99.90;;;;;;4472062;32;20175;-66
2022/02/27 10:39:46;;;;;;;20.00;11.77;;;4.40;99.90;;;;;;4456743;32;20208;-67
2022/02/27 10:42:15;;;;;;;18.50;10.30;;;4.50;99.90;;;;;;4471377;32;20199;-65
2022/02/27 10:45:03;;;;;;;19.37;9.97;;;4.50;99.90;;;;;;4455403;32;20188;-65
2022/02/27 10:47:35;;;;;;;19.80;9.63;;;4.60;99.90;;;;;;4456178;32;20198;-65
2022/02/27 10:50:11;;;;;;;18.73;10.27;;;4.70;99.90;;;;;;4455746;32;20550;-66
2022/02/27 10:52:46;;;;;;;16.77;9.90;;;4.70;99.90;;;;;;4470168;32;20168;-66
2022/02/27 10:55:14;;;;;;;21.27;10.77;;;4.80;99.90;;;;;;4456873;32;20168;-66
2022/02/27 10:57:50;;;;;;;19.90;11.30;;;4.70;99.90;;;;;;4431073;32;20580;-68
2022/02/27 11:00:26;;;;;;;19.10;10.10;;;4.70;99.90;;;;;;4426587;32;20250;-66
2022/02/27 11:02:56;;;;;;;21.23;10.33;;;4.60;99.90;;;;;;4424899;32;20165;-67
2022/02/27 11:05:26;;;;;;;18.00;9.80;;;4.60;99.90;;;;;;4425183;32;20192;-67
2022/02/27 11:07:56;;;;;;;18.10;9.67;;;4.80;99.90;;;;;;4438185;32;20165;-66
2022/02/27 11:10:25;;;;;;;19.13;9.73;;;4.80;99.90;;;;;;4426288;32;20237;-67
2022/02/27 11:12:52;;;;;;;17.80;9.70;;;4.80;99.90;;;;;;4426342;32;20246;-68
2022/02/27 11:15:21;;;;;;;20.13;10.00;;;4.60;99.90;;;;;;4426451;32;20197;-66
2022/02/27 11:17:48;;;;;;;20.87;10.53;;;4.60;99.90;;;;;;4424116;32;20529;-67
2022/02/27 11:20:19;;;;;;;22.13;10.93;;;4.60;99.90;;;;;;4438920;32;20172;-69
2022/02/27 11:22:47;;;;;;;17.67;9.17;;;4.70;99.90;;;;;;4425857;32;20195;-67
2022/02/27 11:25:15;;;;;;;17.13;9.17;;;4.60;99.90;;;;;;4425095;32;20537;-68
2022/02/27 11:27:48;;;;;;;17.63;8.73;;;4.70;99.90;;;;;;4436899;32;20226;-69
2022/02/27 11:30:24;;;;;;;15.30;8.60;;;4.90;99.90;;;;;;4454667;32;20401;-68
2022/02/27 11:32:55;;;;;;;17.10;8.20;;;5.10;99.90;;;;;;4439638;32;20216;-68
2022/02/27 11:35:51;;;;;;;19.10;9.27;;;5.30;99.90;;;;;;4439849;32;20236;-69
2022/02/27 11:38:30;;;;;;;17.67;8.53;;;5.60;99.90;;;;;;4454129;32;20161;-69
2022/02/27 11:41:10;;;;;;;14.47;8.53;;;5.90;99.90;;;;;;4441081;32;20209;-69
2022/02/27 11:43:40;;;;;;;15.50;8.20;;;5.90;99.90;;;;;;4440865;32;20169;-69
2022/02/27 11:46:09;;;;;;;15.03;7.97;;;6.20;99.90;;;;;;4441168;32;20204;-69
2022/02/27 11:48:59;;;;;;;13.10;7.53;;;6.50;99.90;;;;;;4454869;32;20180;-68
2022/02/27 11:51:38;;;;;;;17.33;8.10;;;7.00;99.90;;;;;;4440020;32;20189;-70
2022/02/27 11:54:20;;;;;;;15.63;7.77;;;7.20;99.90;;;;;;4441676;32;20170;-71
2022/02/27 11:57:08;;;;;;;14.10;7.67;;;7.30;99.90;;;;;;4440322;32;20435;-71
2022/02/27 11:59:47;;;;;;;14.13;7.83;;;8.60;99.90;;;;;;4455971;32;20198;-71
2022/02/27 12:02:26;;;;;;;14.07;8.10;;;10.50;99.90;;;;;;4441161;32;20381;-71
2022/02/27 12:04:55;;;;;;;15.37;8.30;;;11.70;99.90;;;;;;4441361;32;20257;-71
2022/02/27 12:07:23;;;;;;;12.97;7.83;;;11.90;97.80;;;;;;4439995;32;20182;-71
2022/02/27 12:09:53;;;;;;;11.93;7.57;;;11.20;98.20;;;;;;4440265;32;20174;-72
2022/02/27 12:12:37;;;;;;;11.23;7.37;;;10.80;99.50;;;;;;4439836;32;20189;-72
2022/02/27 12:15:35;;;;;;;14.50;7.93;;;11.60;97.90;;;;;;4439838;32;20227;-73
2022/02/27 12:18:19;;;;;;;11.68;7.50;;;12.70;93.00;;;;;;4441223;32;20112;-71
2022/02/27 12:20:53;;;;;;;9.57;6.00;;;14.00;84.20;;;;;;4441033;32;20561;-72
2022/02/27 12:23:34;;;;;;;14.30;6.53;;;15.20;73.40;;;;;;4441613;32;20230;-69
2022/02/27 12:26:42;;;;;;;11.10;6.33;;;16.10;66.60;;;;;;4440781;32;20369;-70
2022/02/27 12:29:28;;;;;;;12.30;6.47;;;16.90;62.30;;;;;;4439162;32;20188;-71
2022/02/27 12:32:01;;;;;;;10.57;6.43;;;17.70;58.30;;;;;;4458154;32;20143;-69
2022/02/27 12:34:27;;;;;;;11.63;6.13;;;17.90;55.90;;;;;;4456452;32;20184;-69
2022/02/27 12:36:57;;;;;;;11.07;6.33;;;18.30;54.40;;;;;;4456650;32;20156;-68
2022/02/27 12:39:28;;;;;;;11.90;7.23;;;18.70;53.30;;;;;;4442713;32;20187;-71
2022/02/27 12:41:55;;;;;;;9.97;6.43;;;19.20;51.90;;;;;;4457349;32;20528;-71
2022/02/27 12:44:27;;;;;;;12.40;7.03;;;19.50;50.90;;;;;;4442132;32;20174;-70
2022/02/27 12:46:55;;;;;;;11.27;6.47;;;19.50;49.20;;;;;;4456846;32;20190;-69